sensor_id;sensor_type;location;lat;lon;timestamp;P1;durP1;ratioP1;P2;durP2;ratioP2
64063;SDS011;50314;50.618;10.642;2022-12-29T00:01:15;2.10;;;1.30;;
64063;SDS011;50314;50.618;10.642;2022-12-29T00:03:40;1.33;;;1.23;;
64063;SDS011;50314;50.618;10.642;2022-12-29T00:06:06;2.17;;;1.70;;
64063;SDS011;50314;50.618;10.642;2022-12-29T00:08:31;1.65;;;1.38;;
64063;SDS011;50314;50.618;10.642;2022-12-29T00:11:06;1.73;;;1.05;;
64063;SDS011;50314;50.618;10.642;2022-12-29T00:13:36;1.25;;;1.00;;
64063;SDS011;50314;50.618;10.642;2022-12-29T00:16:21;2.05;;;0.98;;
64063;SDS011;50314;50.618;10.642;2022-12-29T00:18:46;1.52;;;1.13;;
64063;SDS011;50314;50.618;10.642;2022-12-29T00:21:16;1.15;;;0.70;;
64063;SDS011;50314;50.618;10.642;2022-12-29T00:24:01;1.17;;;0.88;;
64063;SDS011;50314;50.618;10.642;2022-12-29T00:26:58;0.68;;;0.68;;
64063;SDS011;50314;50.618;10.642;2022-12-29T00:29:45;1.27;;;0.93;;
64063;SDS011;50314;50.618;10.642;2022-12-29T00:32:29;1.35;;;0.90;;
64063;SDS011;50314;50.618;10.642;2022-12-29T00:35:13;0.82;;;0.77;;
64063;SDS011;50314;50.618;10.642;2022-12-29T00:37:46;1.02;;;0.80;;
64063;SDS011;50314;50.618;10.642;2022-12-29T00:40:32;1.23;;;0.90;;
64063;SDS011;50314;50.618;10.642;2022-12-29T00:43:16;1.25;;;0.95;;
64063;SDS011;50314;50.618;10.642;2022-12-29T00:46:00;0.98;;;0.70;;
64063;SDS011;50314;50.618;10.642;2022-12-29T00:48:25;1.08;;;0.88;;
64063;SDS011;50314;50.618;10.642;2022-12-29T00:51:09;0.77;;;0.77;;
64063;SDS011;50314;50.618;10.642;2022-12-29T00:53:35;1.00;;;0.80;;
64063;SDS011;50314;50.618;10.642;2022-12-29T00:56:00;1.17;;;1.08;;
64063;SDS011;50314;50.618;10.642;2022-12-29T00:58:27;0.98;;;0.80;;
64063;SDS011;50314;50.618;10.642;2022-12-29T01:01:00;1.20;;;1.10;;
64063;SDS011;50314;50.618;10.642;2022-12-29T01:03:27;0.70;;;0.70;;
64063;SDS011;50314;50.618;10.642;2022-12-29T01:05:52;0.80;;;0.80;;
64063;SDS011;50314;50.618;10.642;2022-12-29T01:08:17;0.90;;;0.90;;
64063;SDS011;50314;50.618;10.642;2022-12-29T01:10:43;0.70;;;0.70;;
64063;SDS011;50314;50.618;10.642;2022-12-29T01:13:08;0.80;;;0.80;;
64063;SDS011;50314;50.618;10.642;2022-12-29T01:15:34;1.23;;;1.00;;
64063;SDS011;50314;50.618;10.642;2022-12-29T01:17:59;1.02;;;0.88;;
64063;SDS011;50314;50.618;10.642;2022-12-29T01:20:24;1.15;;;1.02;;
64063;SDS011;50314;50.618;10.642;2022-12-29T01:22:50;0.80;;;0.80;;
64063;SDS011;50314;50.618;10.642;2022-12-29T01:25:15;1.05;;;0.80;;
64063;SDS011;50314;50.618;10.642;2022-12-29T01:27:41;1.13;;;0.80;;
64063;SDS011;50314;50.618;10.642;2022-12-29T01:30:06;1.33;;;0.82;;
64063;SDS011;50314;50.618;10.642;2022-12-29T01:32:32;1.20;;;0.80;;
64063;SDS011;50314;50.618;10.642;2022-12-29T01:34:58;1.35;;;0.98;;
64063;SDS011;50314;50.618;10.642;2022-12-29T01:37:23;0.77;;;0.77;;
64063;SDS011;50314;50.618;10.642;2022-12-29T01:39:48;0.77;;;0.77;;
64063;SDS011;50314;50.618;10.642;2022-12-29T01:42:18;0.90;;;0.80;;
64063;SDS011;50314;50.618;10.642;2022-12-29T01:44:49;0.85;;;0.70;;
64063;SDS011;50314;50.618;10.642;2022-12-29T01:47:25;1.27;;;0.70;;
64063;SDS011;50314;50.618;10.642;2022-12-29T01:50:11;0.95;;;0.82;;
64063;SDS011;50314;50.618;10.642;2022-12-29T01:52:58;1.10;;;1.00;;
64063;SDS011;50314;50.618;10.642;2022-12-29T01:55:47;1.13;;;0.80;;
64063;SDS011;50314;50.618;10.642;2022-12-29T01:58:17;1.27;;;1.08;;
64063;SDS011;50314;50.618;10.642;2022-12-29T02:00:47;1.55;;;0.90;;
64063;SDS011;50314;50.618;10.642;2022-12-29T02:03:13;1.02;;;0.93;;
64063;SDS011;50314;50.618;10.642;2022-12-29T02:05:47;1.17;;;0.85;;
64063;SDS011;50314;50.618;10.642;2022-12-29T02:08:18;1.23;;;1.00;;
64063;SDS011;50314;50.618;10.642;2022-12-29T02:10:47;0.70;;;0.70;;
64063;SDS011;50314;50.618;10.642;2022-12-29T02:13:14;1.83;;;0.82;;
64063;SDS011;50314;50.618;10.642;2022-12-29T02:15:52;2.05;;;0.85;;
64063;SDS011;50314;50.618;10.642;2022-12-29T02:18:26;1.17;;;1.00;;
64063;SDS011;50314;50.618;10.642;2022-12-29T02:32:46;1.00;;;0.80;;
64063;SDS011;50314;50.618;10.642;2022-12-29T02:35:37;0.80;;;0.70;;
64063;SDS011;50314;50.618;10.642;2022-12-29T02:38:33;0.90;;;0.90;;
64063;SDS011;50314;50.618;10.642;2022-12-29T02:41:14;0.90;;;0.82;;
64063;SDS011;50314;50.618;10.642;2022-12-29T02:44:04;1.05;;;0.95;;
64063;SDS011;50314;50.618;10.642;2022-12-29T02:46:36;0.73;;;0.73;;
64063;SDS011;50314;50.618;10.642;2022-12-29T02:49:18;1.33;;;1.23;;
64063;SDS011;50314;50.618;10.642;2022-12-29T02:51:57;1.05;;;1.00;;
64063;SDS011;50314;50.618;10.642;2022-12-29T02:54:28;0.98;;;0.88;;
64063;SDS011;50314;50.618;10.642;2022-12-29T02:57:14;1.13;;;0.90;;
64063;SDS011;50314;50.618;10.642;2022-12-29T02:59:54;0.90;;;0.90;;
64063;SDS011;50314;50.618;10.642;2022-12-29T03:10:15;1.80;;;1.10;;
64063;SDS011;50314;50.618;10.642;2022-12-29T03:15:42;0.90;;;0.90;;
64063;SDS011;50314;50.618;10.642;2022-12-29T03:18:37;1.00;;;0.90;;
64063;SDS011;50314;50.618;10.642;2022-12-29T03:23:35;1.05;;;0.80;;
64063;SDS011;50314;50.618;10.642;2022-12-29T03:26:06;1.08;;;0.90;;
64063;SDS011;50314;50.618;10.642;2022-12-29T03:28:37;0.80;;;0.80;;
64063;SDS011;50314;50.618;10.642;2022-12-29T03:31:06;0.80;;;0.80;;
64063;SDS011;50314;50.618;10.642;2022-12-29T03:33:34;0.70;;;0.70;;
64063;SDS011;50314;50.618;10.642;2022-12-29T03:36:03;0.98;;;0.90;;
64063;SDS011;50314;50.618;10.642;2022-12-29T03:38:37;0.77;;;0.73;;
64063;SDS011;50314;50.618;10.642;2022-12-29T03:41:12;0.98;;;0.90;;
64063;SDS011;50314;50.618;10.642;2022-12-29T03:43:44;1.50;;;0.98;;
64063;SDS011;50314;50.618;10.642;2022-12-29T03:46:11;0.85;;;0.85;;
64063;SDS011;50314;50.618;10.642;2022-12-29T03:48:36;1.27;;;0.88;;
64063;SDS011;50314;50.618;10.642;2022-12-29T03:51:01;0.77;;;0.77;;
64063;SDS011;50314;50.618;10.642;2022-12-29T03:53:27;0.82;;;0.82;;
64063;SDS011;50314;50.618;10.642;2022-12-29T03:55:52;1.00;;;0.77;;
64063;SDS011;50314;50.618;10.642;2022-12-29T03:58:18;1.17;;;1.05;;
64063;SDS011;50314;50.618;10.642;2022-12-29T04:00:43;1.15;;;1.05;;
64063;SDS011;50314;50.618;10.642;2022-12-29T04:03:09;1.20;;;1.10;;
64063;SDS011;50314;50.618;10.642;2022-12-29T04:05:34;0.85;;;0.85;;
64063;SDS011;50314;50.618;10.642;2022-12-29T04:07:59;0.77;;;0.75;;
64063;SDS011;50314;50.618;10.642;2022-12-29T04:10:25;1.45;;;0.90;;
64063;SDS011;50314;50.618;10.642;2022-12-29T04:12:50;0.80;;;0.80;;
64063;SDS011;50314;50.618;10.642;2022-12-29T04:15:16;1.30;;;1.00;;
64063;SDS011;50314;50.618;10.642;2022-12-29T04:17:41;0.93;;;0.90;;
64063;SDS011;50314;50.618;10.642;2022-12-29T04:20:07;1.17;;;1.08;;
64063;SDS011;50314;50.618;10.642;2022-12-29T04:23:02;1.10;;;1.00;;
64063;SDS011;50314;50.618;10.642;2022-12-29T04:25:28;0.80;;;0.80;;
64063;SDS011;50314;50.618;10.642;2022-12-29T04:27:55;1.05;;;0.98;;
64063;SDS011;50314;50.618;10.642;2022-12-29T04:30:20;0.85;;;0.85;;
64063;SDS011;50314;50.618;10.642;2022-12-29T04:32:46;1.05;;;0.90;;
64063;SDS011;50314;50.618;10.642;2022-12-29T04:35:11;0.70;;;0.70;;
64063;SDS011;50314;50.618;10.642;2022-12-29T04:37:37;1.05;;;0.93;;
64063;SDS011;50314;50.618;10.642;2022-12-29T04:40:02;0.90;;;0.90;;
64063;SDS011;50314;50.618;10.642;2022-12-29T04:42:28;0.88;;;0.88;;
64063;SDS011;50314;50.618;10.642;2022-12-29T04:44:53;1.17;;;1.02;;
64063;SDS011;50314;50.618;10.642;2022-12-29T04:47:19;1.50;;;1.00;;
64063;SDS011;50314;50.618;10.642;2022-12-29T04:49:44;0.70;;;0.70;;
64063;SDS011;50314;50.618;10.642;2022-12-29T04:52:10;0.98;;;0.80;;
64063;SDS011;50314;50.618;10.642;2022-12-29T04:54:35;1.30;;;1.20;;
64063;SDS011;50314;50.618;10.642;2022-12-29T04:57:01;0.80;;;0.80;;
64063;SDS011;50314;50.618;10.642;2022-12-29T04:59:26;1.13;;;1.00;;
64063;SDS011;50314;50.618;10.642;2022-12-29T05:01:51;1.20;;;0.90;;
64063;SDS011;50314;50.618;10.642;2022-12-29T05:04:17;0.80;;;0.73;;
64063;SDS011;50314;50.618;10.642;2022-12-29T05:06:42;1.20;;;1.10;;
64063;SDS011;50314;50.618;10.642;2022-12-29T05:09:08;1.42;;;1.10;;
64063;SDS011;50314;50.618;10.642;2022-12-29T05:11:34;1.42;;;1.10;;
64063;SDS011;50314;50.618;10.642;2022-12-29T05:13:59;0.90;;;0.90;;
64063;SDS011;50314;50.618;10.642;2022-12-29T05:16:25;1.10;;;1.00;;
64063;SDS011;50314;50.618;10.642;2022-12-29T05:18:50;1.67;;;1.08;;
64063;SDS011;50314;50.618;10.642;2022-12-29T05:21:16;1.00;;;0.82;;
64063;SDS011;50314;50.618;10.642;2022-12-29T05:23:41;0.70;;;0.70;;
64063;SDS011;50314;50.618;10.642;2022-12-29T05:26:07;1.05;;;0.93;;
64063;SDS011;50314;50.618;10.642;2022-12-29T05:28:32;1.02;;;0.93;;
64063;SDS011;50314;50.618;10.642;2022-12-29T05:30:58;0.75;;;0.75;;
64063;SDS011;50314;50.618;10.642;2022-12-29T05:33:23;0.98;;;0.90;;
64063;SDS011;50314;50.618;10.642;2022-12-29T05:35:48;0.82;;;0.82;;
64063;SDS011;50314;50.618;10.642;2022-12-29T05:38:14;0.75;;;0.75;;
64063;SDS011;50314;50.618;10.642;2022-12-29T05:40:39;1.55;;;0.93;;
64063;SDS011;50314;50.618;10.642;2022-12-29T05:43:05;1.02;;;0.93;;
64063;SDS011;50314;50.618;10.642;2022-12-29T05:45:30;1.10;;;1.00;;
64063;SDS011;50314;50.618;10.642;2022-12-29T05:47:56;1.05;;;0.85;;
64063;SDS011;50314;50.618;10.642;2022-12-29T05:50:21;1.08;;;0.90;;
64063;SDS011;50314;50.618;10.642;2022-12-29T05:52:46;1.08;;;0.98;;
64063;SDS011;50314;50.618;10.642;2022-12-29T05:55:12;1.00;;;0.90;;
64063;SDS011;50314;50.618;10.642;2022-12-29T05:57:38;0.80;;;0.80;;
64063;SDS011;50314;50.618;10.642;2022-12-29T06:00:04;0.80;;;0.80;;
64063;SDS011;50314;50.618;10.642;2022-12-29T06:02:30;1.20;;;1.10;;
64063;SDS011;50314;50.618;10.642;2022-12-29T06:04:56;1.05;;;0.82;;
64063;SDS011;50314;50.618;10.642;2022-12-29T06:07:21;1.13;;;0.93;;
64063;SDS011;50314;50.618;10.642;2022-12-29T06:09:47;0.80;;;0.80;;
64063;SDS011;50314;50.618;10.642;2022-12-29T06:12:12;0.85;;;0.82;;
64063;SDS011;50314;50.618;10.642;2022-12-29T06:14:38;1.33;;;1.10;;
64063;SDS011;50314;50.618;10.642;2022-12-29T06:17:03;1.20;;;1.10;;
64063;SDS011;50314;50.618;10.642;2022-12-29T06:19:29;1.00;;;0.90;;
64063;SDS011;50314;50.618;10.642;2022-12-29T06:21:57;1.00;;;1.00;;
64063;SDS011;50314;50.618;10.642;2022-12-29T06:24:22;1.08;;;0.82;;
64063;SDS011;50314;50.618;10.642;2022-12-29T06:26:48;0.88;;;0.88;;
64063;SDS011;50314;50.618;10.642;2022-12-29T06:29:13;0.80;;;0.80;;
64063;SDS011;50314;50.618;10.642;2022-12-29T06:31:42;0.70;;;0.70;;
64063;SDS011;50314;50.618;10.642;2022-12-29T06:34:10;1.00;;;1.00;;
64063;SDS011;50314;50.618;10.642;2022-12-29T06:36:36;0.75;;;0.73;;
64063;SDS011;50314;50.618;10.642;2022-12-29T06:39:02;1.05;;;0.90;;
64063;SDS011;50314;50.618;10.642;2022-12-29T06:41:27;0.77;;;0.77;;
64063;SDS011;50314;50.618;10.642;2022-12-29T06:43:53;0.73;;;0.73;;
64063;SDS011;50314;50.618;10.642;2022-12-29T06:46:18;0.88;;;0.88;;
64063;SDS011;50314;50.618;10.642;2022-12-29T06:48:43;0.75;;;0.73;;
64063;SDS011;50314;50.618;10.642;2022-12-29T06:51:09;0.90;;;0.90;;
64063;SDS011;50314;50.618;10.642;2022-12-29T06:53:34;0.70;;;0.70;;
64063;SDS011;50314;50.618;10.642;2022-12-29T06:56:00;0.90;;;0.90;;
64063;SDS011;50314;50.618;10.642;2022-12-29T06:58:25;1.10;;;1.08;;
64063;SDS011;50314;50.618;10.642;2022-12-29T07:00:51;1.00;;;0.90;;
64063;SDS011;50314;50.618;10.642;2022-12-29T07:03:16;0.73;;;0.73;;
64063;SDS011;50314;50.618;10.642;2022-12-29T07:05:41;0.70;;;0.70;;
64063;SDS011;50314;50.618;10.642;2022-12-29T07:08:07;1.40;;;0.80;;
64063;SDS011;50314;50.618;10.642;2022-12-29T07:10:33;0.80;;;0.80;;
64063;SDS011;50314;50.618;10.642;2022-12-29T07:12:59;0.90;;;0.90;;
64063;SDS011;50314;50.618;10.642;2022-12-29T07:15:24;0.80;;;0.80;;
64063;SDS011;50314;50.618;10.642;2022-12-29T07:17:49;0.70;;;0.70;;
64063;SDS011;50314;50.618;10.642;2022-12-29T07:20:15;1.67;;;0.90;;
64063;SDS011;50314;50.618;10.642;2022-12-29T07:22:41;0.90;;;0.90;;
64063;SDS011;50314;50.618;10.642;2022-12-29T07:25:07;1.00;;;1.00;;
64063;SDS011;50314;50.618;10.642;2022-12-29T07:27:33;0.68;;;0.60;;
64063;SDS011;50314;50.618;10.642;2022-12-29T07:29:58;1.33;;;0.75;;
64063;SDS011;50314;50.618;10.642;2022-12-29T07:32:23;0.98;;;0.80;;
64063;SDS011;50314;50.618;10.642;2022-12-29T07:34:49;0.90;;;0.70;;
64063;SDS011;50314;50.618;10.642;2022-12-29T07:37:15;0.60;;;0.60;;
64063;SDS011;50314;50.618;10.642;2022-12-29T07:39:40;0.77;;;0.77;;
64063;SDS011;50314;50.618;10.642;2022-12-29T07:42:06;0.70;;;0.70;;
64063;SDS011;50314;50.618;10.642;2022-12-29T07:44:31;1.70;;;0.88;;
64063;SDS011;50314;50.618;10.642;2022-12-29T07:46:57;1.00;;;0.80;;
64063;SDS011;50314;50.618;10.642;2022-12-29T07:49:22;1.20;;;0.88;;
64063;SDS011;50314;50.618;10.642;2022-12-29T07:51:48;0.68;;;0.68;;
64063;SDS011;50314;50.618;10.642;2022-12-29T07:54:13;1.60;;;0.98;;
64063;SDS011;50314;50.618;10.642;2022-12-29T07:56:39;0.70;;;0.70;;
64063;SDS011;50314;50.618;10.642;2022-12-29T07:59:05;4.30;;;1.00;;
64063;SDS011;50314;50.618;10.642;2022-12-29T08:01:30;0.80;;;0.80;;
64063;SDS011;50314;50.618;10.642;2022-12-29T08:03:56;1.08;;;0.95;;
64063;SDS011;50314;50.618;10.642;2022-12-29T08:06:21;1.15;;;0.80;;
64063;SDS011;50314;50.618;10.642;2022-12-29T08:08:47;1.45;;;0.70;;
64063;SDS011;50314;50.618;10.642;2022-12-29T08:11:12;1.17;;;0.80;;
64063;SDS011;50314;50.618;10.642;2022-12-29T08:13:38;2.97;;;1.70;;
64063;SDS011;50314;50.618;10.642;2022-12-29T08:16:03;1.95;;;1.05;;
64063;SDS011;50314;50.618;10.642;2022-12-29T08:18:29;0.80;;;0.80;;
64063;SDS011;50314;50.618;10.642;2022-12-29T08:20:54;1.13;;;1.00;;
64063;SDS011;50314;50.618;10.642;2022-12-29T08:23:20;0.88;;;0.88;;
64063;SDS011;50314;50.618;10.642;2022-12-29T08:25:45;4.53;;;1.02;;
64063;SDS011;50314;50.618;10.642;2022-12-29T08:28:11;2.28;;;1.02;;
64063;SDS011;50314;50.618;10.642;2022-12-29T08:30:36;1.15;;;0.90;;
64063;SDS011;50314;50.618;10.642;2022-12-29T08:33:02;1.60;;;1.20;;
64063;SDS011;50314;50.618;10.642;2022-12-29T08:35:27;2.05;;;1.00;;
64063;SDS011;50314;50.618;10.642;2022-12-29T08:37:53;1.38;;;0.95;;
64063;SDS011;50314;50.618;10.642;2022-12-29T08:40:18;2.25;;;0.80;;
64063;SDS011;50314;50.618;10.642;2022-12-29T08:42:44;1.50;;;0.70;;
64063;SDS011;50314;50.618;10.642;2022-12-29T08:45:09;2.63;;;0.95;;
64063;SDS011;50314;50.618;10.642;2022-12-29T08:47:35;1.30;;;1.02;;
64063;SDS011;50314;50.618;10.642;2022-12-29T08:50:01;1.50;;;0.90;;
64063;SDS011;50314;50.618;10.642;2022-12-29T08:52:26;1.33;;;1.00;;
64063;SDS011;50314;50.618;10.642;2022-12-29T08:54:52;1.10;;;1.00;;
64063;SDS011;50314;50.618;10.642;2022-12-29T08:57:17;1.35;;;0.90;;
64063;SDS011;50314;50.618;10.642;2022-12-29T08:59:43;2.17;;;0.98;;
64063;SDS011;50314;50.618;10.642;2022-12-29T09:02:11;0.80;;;0.80;;
64063;SDS011;50314;50.618;10.642;2022-12-29T09:04:36;1.52;;;0.88;;
64063;SDS011;50314;50.618;10.642;2022-12-29T09:07:02;1.08;;;0.80;;
64063;SDS011;50314;50.618;10.642;2022-12-29T09:09:27;1.33;;;0.80;;
64063;SDS011;50314;50.618;10.642;2022-12-29T09:11:54;0.80;;;0.80;;
64063;SDS011;50314;50.618;10.642;2022-12-29T09:14:20;1.25;;;0.70;;
64063;SDS011;50314;50.618;10.642;2022-12-29T09:16:46;2.13;;;1.50;;
64063;SDS011;50314;50.618;10.642;2022-12-29T09:19:30;1.05;;;0.80;;
64063;SDS011;50314;50.618;10.642;2022-12-29T09:21:56;0.70;;;0.70;;
64063;SDS011;50314;50.618;10.642;2022-12-29T09:24:22;1.65;;;0.93;;
64063;SDS011;50314;50.618;10.642;2022-12-29T09:26:47;1.95;;;0.93;;
64063;SDS011;50314;50.618;10.642;2022-12-29T09:29:12;2.75;;;0.93;;
64063;SDS011;50314;50.618;10.642;2022-12-29T09:31:38;1.17;;;0.80;;
64063;SDS011;50314;50.618;10.642;2022-12-29T09:34:03;1.77;;;0.95;;
64063;SDS011;50314;50.618;10.642;2022-12-29T09:36:28;0.85;;;0.70;;
64063;SDS011;50314;50.618;10.642;2022-12-29T09:38:54;1.13;;;0.98;;
64063;SDS011;50314;50.618;10.642;2022-12-29T09:41:23;1.33;;;0.88;;
64063;SDS011;50314;50.618;10.642;2022-12-29T09:43:59;0.90;;;0.82;;
64063;SDS011;50314;50.618;10.642;2022-12-29T09:46:37;1.00;;;0.90;;
64063;SDS011;50314;50.618;10.642;2022-12-29T09:51:45;0.82;;;0.80;;
64063;SDS011;50314;50.618;10.642;2022-12-29T09:57:03;0.90;;;0.90;;
64063;SDS011;50314;50.618;10.642;2022-12-29T09:59:39;1.02;;;0.90;;
64063;SDS011;50314;50.618;10.642;2022-12-29T10:02:12;2.70;;;1.17;;
64063;SDS011;50314;50.618;10.642;2022-12-29T10:05:00;1.45;;;1.08;;
64063;SDS011;50314;50.618;10.642;2022-12-29T10:13:06;0.77;;;0.73;;
64063;SDS011;50314;50.618;10.642;2022-12-29T10:20:54;1.50;;;0.85;;
64063;SDS011;50314;50.618;10.642;2022-12-29T10:23:42;0.98;;;0.82;;
64063;SDS011;50314;50.618;10.642;2022-12-29T10:26:17;1.10;;;0.80;;
64063;SDS011;50314;50.618;10.642;2022-12-29T10:31:23;1.17;;;1.05;;
64063;SDS011;50314;50.618;10.642;2022-12-29T10:33:57;1.30;;;0.90;;
64063;SDS011;50314;50.618;10.642;2022-12-29T10:39:06;0.73;;;0.73;;
64063;SDS011;50314;50.618;10.642;2022-12-29T10:41:48;0.80;;;0.80;;
64063;SDS011;50314;50.618;10.642;2022-12-29T10:44:18;0.88;;;0.80;;
64063;SDS011;50314;50.618;10.642;2022-12-29T10:49:18;1.20;;;0.80;;
64063;SDS011;50314;50.618;10.642;2022-12-29T10:51:44;0.80;;;0.80;;
64063;SDS011;50314;50.618;10.642;2022-12-29T10:54:17;1.20;;;0.98;;
64063;SDS011;50314;50.618;10.642;2022-12-29T10:56:47;1.10;;;0.80;;
64063;SDS011;50314;50.618;10.642;2022-12-29T10:59:50;1.27;;;0.98;;
64063;SDS011;50314;50.618;10.642;2022-12-29T11:07:08;1.13;;;1.02;;
64063;SDS011;50314;50.618;10.642;2022-12-29T11:09:36;1.27;;;0.90;;
64063;SDS011;50314;50.618;10.642;2022-12-29T11:15:15;1.85;;;1.00;;
64063;SDS011;50314;50.618;10.642;2022-12-29T11:17:44;1.88;;;1.02;;
64063;SDS011;50314;50.618;10.642;2022-12-29T11:23:03;1.13;;;1.02;;
64063;SDS011;50314;50.618;10.642;2022-12-29T11:25:30;3.22;;;1.20;;
64063;SDS011;50314;50.618;10.642;2022-12-29T11:27:57;2.38;;;1.23;;
64063;SDS011;50314;50.618;10.642;2022-12-29T11:30:27;1.95;;;1.05;;
64063;SDS011;50314;50.618;10.642;2022-12-29T11:32:55;1.73;;;1.17;;
64063;SDS011;50314;50.618;10.642;2022-12-29T11:35:32;2.00;;;1.27;;
64063;SDS011;50314;50.618;10.642;2022-12-29T11:38:18;1.15;;;1.05;;
64063;SDS011;50314;50.618;10.642;2022-12-29T11:40:47;8.27;;;1.73;;
64063;SDS011;50314;50.618;10.642;2022-12-29T11:43:55;2.63;;;1.23;;
64063;SDS011;50314;50.618;10.642;2022-12-29T11:46:07;1.83;;;1.13;;
64063;SDS011;50314;50.618;10.642;2022-12-29T11:48:41;1.35;;;1.20;;
64063;SDS011;50314;50.618;10.642;2022-12-29T11:51:07;2.05;;;1.65;;
64063;SDS011;50314;50.618;10.642;2022-12-29T11:56:08;1.38;;;1.10;;
64063;SDS011;50314;50.618;10.642;2022-12-29T11:58:39;1.67;;;1.10;;
64063;SDS011;50314;50.618;10.642;2022-12-29T12:01:07;1.73;;;1.20;;
64063;SDS011;50314;50.618;10.642;2022-12-29T12:03:51;2.60;;;1.00;;
64063;SDS011;50314;50.618;10.642;2022-12-29T12:06:22;2.08;;;1.10;;
64063;SDS011;50314;50.618;10.642;2022-12-29T12:09:00;1.30;;;1.00;;
64063;SDS011;50314;50.618;10.642;2022-12-29T12:11:32;1.42;;;1.27;;
64063;SDS011;50314;50.618;10.642;2022-12-29T12:15:03;1.88;;;1.50;;
64063;SDS011;50314;50.618;10.642;2022-12-29T12:17:16;2.00;;;1.27;;
64063;SDS011;50314;50.618;10.642;2022-12-29T12:28:33;1.73;;;1.15;;
64063;SDS011;50314;50.618;10.642;2022-12-29T12:31:06;1.63;;;1.17;;
64063;SDS011;50314;50.618;10.642;2022-12-29T12:33:42;1.58;;;1.10;;
64063;SDS011;50314;50.618;10.642;2022-12-29T12:41:33;3.08;;;1.20;;
64063;SDS011;50314;50.618;10.642;2022-12-29T12:47:09;1.55;;;1.42;;
64063;SDS011;50314;50.618;10.642;2022-12-29T12:57:47;0.90;;;0.90;;
64063;SDS011;50314;50.618;10.642;2022-12-29T13:00:23;0.93;;;0.93;;
64063;SDS011;50314;50.618;10.642;2022-12-29T13:14:08;1.80;;;1.23;;
64063;SDS011;50314;50.618;10.642;2022-12-29T13:19:29;2.13;;;0.90;;
64063;SDS011;50314;50.618;10.642;2022-12-29T13:24:47;1.98;;;1.05;;
64063;SDS011;50314;50.618;10.642;2022-12-29T13:30:00;1.90;;;1.20;;
64063;SDS011;50314;50.618;10.642;2022-12-29T13:39:04;2.88;;;1.10;;
64063;SDS011;50314;50.618;10.642;2022-12-29T13:41:16;2.88;;;1.52;;
64063;SDS011;50314;50.618;10.642;2022-12-29T13:43:46;1.95;;;1.23;;
64063;SDS011;50314;50.618;10.642;2022-12-29T13:46:16;2.20;;;1.40;;
64063;SDS011;50314;50.618;10.642;2022-12-29T13:48:55;1.40;;;1.30;;
64063;SDS011;50314;50.618;10.642;2022-12-29T13:51:26;1.67;;;1.10;;
64063;SDS011;50314;50.618;10.642;2022-12-29T13:56:51;1.77;;;1.10;;
64063;SDS011;50314;50.618;10.642;2022-12-29T14:01:49;1.25;;;1.05;;
64063;SDS011;50314;50.618;10.642;2022-12-29T14:04:28;1.50;;;0.90;;
64063;SDS011;50314;50.618;10.642;2022-12-29T14:10:04;1.23;;;1.00;;
64063;SDS011;50314;50.618;10.642;2022-12-29T14:17:33;1.55;;;1.27;;
64063;SDS011;50314;50.618;10.642;2022-12-29T14:19:59;1.25;;;1.10;;
64063;SDS011;50314;50.618;10.642;2022-12-29T14:22:25;1.92;;;1.10;;
64063;SDS011;50314;50.618;10.642;2022-12-29T14:29:46;1.50;;;1.08;;
64063;SDS011;50314;50.618;10.642;2022-12-29T14:34:54;1.17;;;1.08;;
64063;SDS011;50314;50.618;10.642;2022-12-29T14:37:32;1.20;;;0.93;;
64063;SDS011;50314;50.618;10.642;2022-12-29T14:42:32;2.10;;;1.00;;
64063;SDS011;50314;50.618;10.642;2022-12-29T14:45:19;1.50;;;1.05;;
64063;SDS011;50314;50.618;10.642;2022-12-29T14:47:50;4.35;;;1.30;;
64063;SDS011;50314;50.618;10.642;2022-12-29T14:50:18;1.67;;;1.15;;
64063;SDS011;50314;50.618;10.642;2022-12-29T14:52:54;2.30;;;1.20;;
64063;SDS011;50314;50.618;10.642;2022-12-29T15:00:56;2.50;;;1.50;;
64063;SDS011;50314;50.618;10.642;2022-12-29T15:03:30;2.35;;;1.70;;
64063;SDS011;50314;50.618;10.642;2022-12-29T15:05:58;4.70;;;2.00;;
64063;SDS011;50314;50.618;10.642;2022-12-29T15:08:32;6.15;;;2.58;;
64063;SDS011;50314;50.618;10.642;2022-12-29T15:13:38;5.50;;;2.85;;
64063;SDS011;50314;50.618;10.642;2022-12-29T15:16:20;6.18;;;4.47;;
64063;SDS011;50314;50.618;10.642;2022-12-29T15:18:46;8.93;;;6.60;;
64063;SDS011;50314;50.618;10.642;2022-12-29T15:21:12;9.48;;;7.20;;
64063;SDS011;50314;50.618;10.642;2022-12-29T15:23:40;8.90;;;7.30;;
64063;SDS011;50314;50.618;10.642;2022-12-29T15:26:08;8.57;;;6.30;;
64063;SDS011;50314;50.618;10.642;2022-12-29T15:28:39;7.05;;;5.50;;
64063;SDS011;50314;50.618;10.642;2022-12-29T15:31:16;9.68;;;5.18;;
64063;SDS011;50314;50.618;10.642;2022-12-29T15:33:43;7.10;;;5.05;;
64063;SDS011;50314;50.618;10.642;2022-12-29T15:36:13;7.22;;;5.28;;
64063;SDS011;50314;50.618;10.642;2022-12-29T15:38:44;5.85;;;4.70;;
64063;SDS011;50314;50.618;10.642;2022-12-29T15:44:41;7.10;;;5.32;;
64063;SDS011;50314;50.618;10.642;2022-12-29T15:47:15;6.65;;;4.45;;
64063;SDS011;50314;50.618;10.642;2022-12-29T15:49:49;7.88;;;5.22;;
64063;SDS011;50314;50.618;10.642;2022-12-29T15:52:18;6.40;;;4.30;;
64063;SDS011;50314;50.618;10.642;2022-12-29T15:54:46;6.20;;;4.78;;
64063;SDS011;50314;50.618;10.642;2022-12-29T15:59:54;5.47;;;4.20;;
64063;SDS011;50314;50.618;10.642;2022-12-29T16:02:22;7.32;;;4.63;;
64063;SDS011;50314;50.618;10.642;2022-12-29T16:04:49;6.30;;;4.25;;
64063;SDS011;50314;50.618;10.642;2022-12-29T16:07:26;5.80;;;4.18;;
64063;SDS011;50314;50.618;10.642;2022-12-29T16:09:55;5.57;;;4.10;;
64063;SDS011;50314;50.618;10.642;2022-12-29T16:12:23;6.70;;;4.43;;
64063;SDS011;50314;50.618;10.642;2022-12-29T16:14:59;10.35;;;5.15;;
64063;SDS011;50314;50.618;10.642;2022-12-29T16:17:27;8.85;;;5.38;;
64063;SDS011;50314;50.618;10.642;2022-12-29T16:20:02;9.60;;;5.38;;
64063;SDS011;50314;50.618;10.642;2022-12-29T16:25:01;6.63;;;4.93;;
64063;SDS011;50314;50.618;10.642;2022-12-29T16:27:36;7.35;;;5.20;;
64063;SDS011;50314;50.618;10.642;2022-12-29T16:32:54;7.50;;;4.85;;
64063;SDS011;50314;50.618;10.642;2022-12-29T16:35:44;9.70;;;4.35;;
64063;SDS011;50314;50.618;10.642;2022-12-29T16:40:52;10.63;;;5.00;;
64063;SDS011;50314;50.618;10.642;2022-12-29T16:43:25;6.43;;;4.47;;
64063;SDS011;50314;50.618;10.642;2022-12-29T16:50:45;6.80;;;4.35;;
64063;SDS011;50314;50.618;10.642;2022-12-29T16:53:19;6.50;;;4.40;;
64063;SDS011;50314;50.618;10.642;2022-12-29T16:55:48;8.13;;;4.13;;
64063;SDS011;50314;50.618;10.642;2022-12-29T16:58:19;5.82;;;4.22;;
64063;SDS011;50314;50.618;10.642;2022-12-29T17:00:47;7.45;;;4.38;;
64063;SDS011;50314;50.618;10.642;2022-12-29T17:03:13;6.03;;;3.85;;
64063;SDS011;50314;50.618;10.642;2022-12-29T17:05:40;6.10;;;3.70;;
64063;SDS011;50314;50.618;10.642;2022-12-29T17:08:18;6.72;;;4.22;;
64063;SDS011;50314;50.618;10.642;2022-12-29T17:10:52;5.93;;;3.83;;
64063;SDS011;50314;50.618;10.642;2022-12-29T17:13:39;5.45;;;3.60;;
64063;SDS011;50314;50.618;10.642;2022-12-29T17:16:05;5.85;;;3.53;;
64063;SDS011;50314;50.618;10.642;2022-12-29T17:18:33;6.03;;;3.60;;
64063;SDS011;50314;50.618;10.642;2022-12-29T17:20:59;5.47;;;3.45;;
64063;SDS011;50314;50.618;10.642;2022-12-29T17:23:25;4.93;;;3.53;;
64063;SDS011;50314;50.618;10.642;2022-12-29T17:25:51;5.63;;;3.83;;
64063;SDS011;50314;50.618;10.642;2022-12-29T17:30:49;4.95;;;3.10;;
64063;SDS011;50314;50.618;10.642;2022-12-29T17:33:17;5.53;;;3.03;;
64063;SDS011;50314;50.618;10.642;2022-12-29T17:35:44;4.30;;;3.03;;